• Join FlightAware (Why Join?)
  • Login
  • US Flag 
06:10AM EDT


 

Airport Tracker/Info


-or-


 

Live Flight TrackerFlight Track Log ✈ XOJ552 ✈ 23-Oct-2013 ✈ KBJC - KCLE

Flight Track Log - Related Links

Times and Time Zones

All times are in EDT time to prevent confusion due to time zone crossing. See the XOJ552 flight status page for this flight to view local times or setup timezone preferences in your user account.

Time Position Orientation Groundspeed Altitude Reporting Facility
EDT Latitude Longitude Course Direction KTS MPH feet Rate Location/Type
11:04AM 39.9167 -105.1333 78° East 174 200 6,700  Level Denver TRACON
11:05AM 39.9833 -105.1333 360° North 226 260 9,100 2,880 Climbing Denver TRACON
11:06AM 39.9931 -105.0781 77° East 224 258 11,800 3,360 Climbing Denver Center
11:07AM 39.9653 -104.9978 114° Southeast 248 285 15,200 3,000 Climbing Denver Center
11:08AM 39.9503 -104.8881 100° East 305 351 18,100 2,700 Climbing Denver Center
11:09AM 39.9608 -104.7661 84° East 336 387 20,800 2,460 Climbing Denver Center
11:10AM 40.1699 -103.5007 78° East  Level Estimated
11:10AM 39.9689 -104.6269 86° East 380 437 23,300  Level Denver Center
11:11AM 39.9786 -104.4664 85° East 406 467 25,600 2,280 Climbing Denver Center
11:12AM 39.9883 -104.3089 85° East 430 495 28,100 2,340 Climbing Denver Center
11:13AM 39.9981 -104.1522 85° East 432 497 30,500 1,980 Climbing Denver Center
11:14AM 40.0083 -103.9931 85° East 439 505 32,300 1,680 Climbing Denver Center
11:15AM 40.0169 -103.8292 86° East 452 520 34,000 1,680 Climbing Denver Center
11:16AM 40.0383 -103.6722 80° East 439 505 35,800 1,740 Climbing Denver Center
11:17AM 40.0683 -103.4794 78° East 451 519 37,600 1,440 Climbing Denver Center
11:18AM 40.0961 -103.3178 77° East 456 525 38,800 1,080 Climbing Denver Center
11:19AM 40.1211 -103.1550 79° East 458 527 39,900 960 Climbing Denver Center
11:20AM 40.1461 -102.9908 79° East 461 531 40,900 960 Climbing Denver Center
11:21AM 40.1728 -102.8289 78° East 457 526 41,900 840 Climbing Denver Center
11:22AM 40.1997 -102.6492 79° East 456 525 42,700 600 Climbing Denver Center
11:23AM 40.2247 -102.4931 78° East 458 527 43,200 480 Climbing Denver Center
11:24AM 40.2525 -102.3078 79° East 464 534 43,700 480 Climbing Denver Center
11:25AM 40.2764 -102.1503 79° East 462 532 44,200 480 Climbing Denver Center
11:26AM 40.3042 -101.9664 79° East 463 533 44,700 360 Climbing Denver Center
11:27AM 40.3269 -101.8078 79° East 463 533 45,000 120 Climbing Denver Center
11:28AM 40.3547 -101.6208 79° East 469 540 45,000  Level Denver Center
11:29AM 40.3781 -101.4558 79° East 480 552 45,000  Level Denver Center
11:31AM 40.3913 -101.2704 77° East  Level FlightAware Approximate
11:31AM 40.4294 -101.0947 77° East 489 563 45,000  Level Denver Center
11:32AM 40.4569 -100.8967 80° East 496 571 45,000  Level Denver Center
11:33AM 40.4786 -100.7297 80° East 491 565 45,000  Level Denver Center
11:35AM 40.5036 -100.5350 80° East 489 563 45,000  Level Denver Center
11:36AM 40.5250 -100.3681 80° East 489 563 45,000  Level Denver Center
11:37AM 40.5497 -100.1767 80° East 482 555 45,000  Level Denver Center
11:38AM 40.5697 -100.0106 81° East 481 554 45,000  Level Denver Center
11:39AM 40.5942 -99.8178 80° East 481 554 45,000  Level Denver Center
11:40AM 40.6150 -99.6519 81° East 481 554 45,000  Level Denver Center
11:41AM 40.6375 -99.4575 81° East 481 554 45,000  Level Denver Center
11:42AM 40.6572 -99.2900 81° East 483 556 45,000  Level Denver Center
11:43AM 40.6758 -99.1153 82° East 485 558 45,000  Level Minneapolis Center
11:44AM 40.6981 -98.9372 81° East 489 563 45,000  Level Minneapolis Center
11:45AM 40.7172 -98.7606 82° East 489 563 45,000  Level Minneapolis Center
11:46AM 40.7397 -98.5475 82° East 490 564 45,000  Level Minneapolis Center
11:47AM 40.7594 -98.3697 82° East 490 564 45,000  Level Minneapolis Center
11:48AM 40.7781 -98.1908 82° East 491 565 45,000  Level Minneapolis Center
11:49AM 40.7972 -98.0125 82° East 492 566 45,000  Level Minneapolis Center
11:50AM 40.8167 -97.8331 82° East 493 567 45,000  Level Minneapolis Center
11:51AM 40.8353 -97.6528 82° East 495 570 45,000  Level Minneapolis Center
11:52AM 40.8567 -97.4344 83° East 498 573 45,000  Level Minneapolis Center
11:53AM 40.8744 -97.2519 83° East 500 575 45,000  Level Minneapolis Center
11:54AM 40.8928 -97.0692 82° East 501 577 45,000  Level Minneapolis Center
11:55AM 40.9103 -96.8853 83° East 504 580 45,000  Level Minneapolis Center
11:56AM 40.9294 -96.7017 82° East 506 582 45,000  Level Minneapolis Center
11:57AM 40.9586 -96.4819 80° East 508 585 45,000  Level Minneapolis Center
11:58AM 40.9836 -96.3003 80° East 506 582 45,000  Level Minneapolis Center
11:59AM 41.0078 -96.1189 80° East 506 582 45,000  Level Minneapolis Center
12:00PM 41.0317 -95.9353 80° East 506 582 45,000  Level Minneapolis Center
12:01PM 41.0547 -95.7514 81° East 513 590 45,000  Level Minneapolis Center
12:02PM 41.0842 -95.5314 80° East 511 588 45,000  Level Minneapolis Center
12:03PM 41.1083 -95.3467 80° East 511 588 45,000  Level Minneapolis Center
12:04PM 41.1322 -95.1631 80° East 510 587 45,000  Level Minneapolis Center
12:06PM 41.1550 -94.9781 81° East 509 586 45,000  Level Minneapolis Center
12:07PM 41.1772 -94.7936 81° East 508 585 45,000  Level Minneapolis Center
12:08PM 41.1992 -94.6092 81° East 507 583 45,000  Level Minneapolis Center
12:09PM 41.2258 -94.3861 81° East 510 587 45,000  Level Minneapolis Center
12:10PM 41.2464 -94.2019 81° East 507 583 45,000  Level Minneapolis Center
12:11PM 41.2683 -94.0111 81° East 507 583 45,000  Level Minneapolis Center
12:12PM 41.2903 -93.8264 81° East 508 585 45,000  Level Minneapolis Center
12:13PM 41.3122 -93.6431 81° East 507 583 45,000  Level Minneapolis Center
12:14PM 41.3356 -93.4561 81° East 510 587 45,000  Level Minneapolis Center
12:15PM 41.3572 -93.2700 81° East 511 588 45,000  Level Minneapolis Center
12:16PM 41.3819 -93.0469 82° East 511 588 45,000  Level Minneapolis Center
12:17PM 41.4031 -92.8617 81° East 509 586 45,000  Level Minneapolis Center
12:18PM 41.4239 -92.6761 81° East 508 585 45,000  Level Minneapolis Center
12:19PM 41.4353 -92.5622 82° East 509 586 45,000  Level Chicago Center
12:20PM 41.4550 -92.3828 82° East 512 589 45,000  Level Chicago Center
12:21PM 41.4783 -92.1606 82° East 511 588 45,000  Level Chicago Center
12:22PM 41.4975 -91.9722 82° East 514 592 45,000  Level Chicago Center
12:23PM 41.5169 -91.7875 82° East 513 590 45,000  Level Chicago Center
12:24PM 41.5353 -91.6003 82° East 514 592 45,000  Level Chicago Center
12:25PM 41.5544 -91.4125 82° East 516 594 45,000  Level Chicago Center
12:26PM 41.5747 -91.1897 83° East 512 589 45,000  Level Chicago Center
12:27PM 41.5931 -91.0031 82° East 513 590 45,000  Level Chicago Center
12:28PM 41.6111 -90.8147 83° East 516 594 45,000  Level Chicago Center
12:29PM 41.6297 -90.6097 83° East 515 593 45,000  Level Chicago Center
12:30PM 41.6464 -90.4183 83° East 516 594 45,000  Level Chicago Center
12:31PM 41.6639 -90.2267 83° East 518 596 45,000  Level Chicago Center
12:32PM 41.6803 -90.0342 83° East 518 596 45,000  Level Chicago Center
12:33PM 41.6958 -89.8403 84° East 521 600 45,000  Level Chicago Center
12:34PM 41.7158 -89.6050 83° East 527 606 45,000  Level Chicago Center
12:35PM 41.7306 -89.4192 84° East 525 604 45,000  Level Chicago Center
12:36PM 41.7461 -89.2233 84° East 528 608 45,000  Level Chicago Center
12:37PM 41.7611 -89.0294 84° East 525 604 45,000  Level Chicago Center
12:38PM 41.7789 -88.7961 84° East 526 605 45,000  Level Chicago Center
12:39PM 41.7925 -88.6017 85° East 525 604 45,000  Level Chicago Center
12:40PM 41.8061 -88.4078 85° East 522 601 45,000 -540 Level Chicago Center
12:41PM 41.8192 -88.2114 85° East 523 602 43,900 -1,020 Descending Chicago Center
12:42PM 41.8333 -88.0122 84° East 529 609 43,000 -480 Descending Chicago Center
12:43PM 41.8464 -87.8156 85° East 527 606 43,000  Level Chicago Center
12:44PM 41.8592 -87.6219 85° East 521 600 43,000  Level Chicago Center
12:45PM 41.8733 -87.3903 85° East 521 600 43,000  Level Chicago Center
12:46PM 41.8858 -87.1992 85° East 517 595 43,000  Level Chicago Center
12:48PM 41.8981 -87.0064 85° East 518 596 43,000 -540 Level Chicago Center
12:49PM 41.9086 -86.8117 86° East 522 601 42,000 -1,440 Descending Chicago Center
12:50PM 41.9172 -86.6147 87° East 530 610 40,100 -1,800 Descending Chicago Center
12:51PM 41.9283 -86.4150 86° East 537 618 38,300 -1,980 Descending Chicago Center
12:52PM 41.9414 -86.1767 86° East 534 615 36,100 -1,140 Descending Chicago Center
12:53PM 41.9511 -85.9808 86° East 527 606 36,000 -480 Descending Chicago Center
12:54PM 41.9597 -85.7858 87° East 524 603 35,100 -1,200 Descending Chicago Center
12:55PM 41.9700 -85.5864 86° East 528 608 33,600 -1,020 Descending Chicago Center
12:56PM 41.9792 -85.3842 86° East 535 616 33,000 -300 Descending Chicago Center
12:57PM 41.9886 -85.1822 86° East 536 617 33,000  Level Chicago Center
12:58PM 41.9986 -84.9639 86° East 546 628 33,000  Level Chicago Center
12:59PM 42.0067 -84.7642 87° East 539 620 33,000 -300 Level Chicago Center
01:00PM 42.0136 -84.5658 87° East 535 616 32,400 -1,200 Descending Chicago Center
01:01PM 42.0236 -84.3353 87° East 518 596 30,600 -1,500 Descending Chicago Center
01:02PM 42.0286 -84.1528 88° East 500 575 29,300 -1,380 Descending Chicago Center
01:03PM 42.0333 -83.9594 88° East 493 567 27,800 -1,440 Descending Cleveland Center
01:04PM 42.0378 -83.7764 88° East 494 568 26,400 -1,320 Descending Cleveland Center
01:05PM 42.0439 -83.5989 87° East 485 558 25,100 -1,440 Descending Cleveland Center
01:06PM 42.0419 -83.4053 91° East 465 535 23,500 -1,800 Descending Cleveland Center
01:07PM 42.0261 -83.2389 97° East 448 516 21,500 -2,040 Descending Cleveland Center
01:08PM 42.0111 -83.0775 97° East 430 495 19,400 -2,040 Descending Cleveland Center
01:09PM 41.9956 -82.9217 98° East 423 487 17,400 -1,980 Descending Cleveland Center
01:10PM 41.9803 -82.7700 98° East 415 478 15,400 -1,980 Descending Cleveland Center
01:11PM 41.9656 -82.6247 98° East 393 452 13,400 -2,280 Descending Cleveland Center
01:12PM 41.9578 -82.5628 100° East 363 418 12,400 -2,520 Descending Cleveland Center
01:12PM 41.9425 -82.5036 109° East 355 409 11,400 -1,980 Descending Cleveland Center
01:12PM 41.9339 -82.4700 109° East 364 419 11,000 -1,380 Descending Cleveland Center
01:13PM 41.9042 -82.3817 114° Southeast 320 368 10,000 -1,020 Descending Cleveland Center
01:13PM 41.8975 -82.3625 115° Southeast 326 375 10,000  Level Cleveland Center
01:14PM 41.8675 -82.2606 112° Southeast 300 345 10,000  Level Cleveland Center
01:15PM 41.8394 -82.1767 114° Southeast 302 348 10,000  Level Cleveland Center
01:15PM 41.8322 -82.1589 119° Southeast 301 346 10,000  Level Cleveland Center
01:16PM 41.7719 -82.1147 151° Southeast 298 343 10,000  Level Cleveland Center
01:16PM 41.7547 -82.0975 143° Southeast 300 345 10,000 -1,140 Level Cleveland Center
01:17PM 41.7042 -82.0528 147° Southeast 291 335 8,900 -1,500 Descending Cleveland Center
01:18PM 41.6869 -82.0375 146° Southeast 293 337 8,500 -1,620 Descending Cleveland Center
01:18PM 41.6381 -81.9969 148° Southeast 286 329 7,300 -1,500 Descending Cleveland Center
01:19PM 41.6206 -81.9789 142° Southeast 287 330 7,000 -240 Descending Cleveland Center
01:20PM 41.5572 -81.9247 147° Southeast 273 314 7,000  Level Cleveland Center
01:20PM 41.5000 -81.8764 148° Southeast 255 293 7,000  Level Cleveland Center
01:21PM 41.4858 -81.8706 163° South 256 295 7,000  Level Cleveland Center
01:21PM 41.4533 -81.9050 218° Southwest 201 231 7,000  Level Cleveland Center
01:22PM 41.4411 -81.9197 222° Southwest 216 249 7,000 -420 Level Cleveland Center
01:22PM 41.4164 -81.9631 233° Southwest 196 226 6,600 -900 Descending Cleveland Center
01:23PM 41.4064 -81.9767 226° Southwest 201 231 6,100 -1,440 Descending Cleveland Center
01:23PM 41.3853 -82.0250 240° Southwest 214 246 5,200 -1,260 Descending Cleveland Center
01:24PM 41.3750 -82.0425 232° Southwest 205 236 4,800 -1,080 Descending Cleveland Center
01:24PM 41.3494 -82.0942 237° Southwest 197 227 4,000 -780 Descending Cleveland Center
01:25PM 41.3436 -82.1028 228° Southwest 202 232 4,000 -240 Level Cleveland Center
01:25PM 41.3044 -82.1036 181° South 217 250 3,800 -420 Descending Cleveland Center
01:26PM 41.2972 -82.0917 129° Southeast 216 249 3,600 -840 Descending Cleveland Center
01:26PM 41.2919 -82.0372 97° East 206 237 3,000 -600 Descending Cleveland Center
01:27PM 41.2975 -82.0281 51° Northeast 202 232 3,000  Level Cleveland Center
01:27PM 41.3256 -81.9928 43° Northeast 167 192 3,000 -240 Level Cleveland Center
01:28PM 41.3361 -81.9725 55° Northeast 179 206 2,800 -720 Descending Cleveland Center
01:28PM 41.3528 -81.9469 49° Northeast 145 167 2,300 -780 Descending Cleveland Center
01:29PM 41.3611 -81.9297 57° Northeast 159 183 2,000 -840 Descending Cleveland Center
01:30PM 41.3750 -81.9117 44° Northeast 126 145 1,500 -720 Descending Cleveland Center
01:30PM 41.3842 -81.8942 55° Northeast 138 159 1,300 -660 Descending Cleveland Center
01:30PM 41.3972 -81.8764 46° Northeast 129 148 900 -540 Descending Cleveland Center
01:31PM 41.4064 -81.8594 54° Northeast 132 152 800 -240 Descending Cleveland Center